sensor_id;sensor_type;location;lat;lon;timestamp;pressure;altitude;pressure_sealevel;temperature;humidity
25238;BME280;13185;50.872;5.306;2022-11-13T00:00:03;102302.56;;;6.32;100.00
25238;BME280;13185;50.872;5.306;2022-11-13T00:02:47;102301.81;;;6.27;100.00
25238;BME280;13185;50.872;5.306;2022-11-13T00:05:31;102305.38;;;6.25;100.00
25238;BME280;13185;50.872;5.306;2022-11-13T00:08:16;102306.38;;;6.21;100.00
25238;BME280;13185;50.872;5.306;2022-11-13T00:11:04;102303.84;;;6.16;100.00
25238;BME280;13185;50.872;5.306;2022-11-13T00:13:49;102307.44;;;6.15;100.00
25238;BME280;13185;50.872;5.306;2022-11-13T00:16:33;102297.66;;;6.14;100.00
25238;BME280;13185;50.872;5.306;2022-11-13T00:19:17;102291.44;;;6.14;100.00
25238;BME280;13185;50.872;5.306;2022-11-13T00:22:01;102289.66;;;6.14;100.00
25238;BME280;13185;50.872;5.306;2022-11-13T00:24:46;102290.53;;;6.15;100.00
25238;BME280;13185;50.872;5.306;2022-11-13T00:27:30;102299.44;;;6.14;100.00
25238;BME280;13185;50.872;5.306;2022-11-13T00:30:14;102295.03;;;6.13;100.00
25238;BME280;13185;50.872;5.306;2022-11-13T00:32:59;102282.66;;;6.10;100.00
25238;BME280;13185;50.872;5.306;2022-11-13T00:35:43;102295.16;;;6.08;100.00
25238;BME280;13185;50.872;5.306;2022-11-13T00:38:27;102288.13;;;6.04;100.00
25238;BME280;13185;50.872;5.306;2022-11-13T00:41:11;102292.66;;;6.00;100.00
25238;BME280;13185;50.872;5.306;2022-11-13T00:43:55;102291.00;;;5.96;100.00
25238;BME280;13185;50.872;5.306;2022-11-13T00:46:40;102284.81;;;5.94;100.00
25238;BME280;13185;50.872;5.306;2022-11-13T00:49:24;102283.13;;;5.90;100.00
25238;BME280;13185;50.872;5.306;2022-11-13T00:52:08;102273.47;;;5.85;100.00
25238;BME280;13185;50.872;5.306;2022-11-13T00:54:52;102266.41;;;5.82;100.00
25238;BME280;13185;50.872;5.306;2022-11-13T00:57:36;102264.69;;;5.79;100.00
25238;BME280;13185;50.872;5.306;2022-11-13T01:00:20;102261.16;;;5.79;100.00
25238;BME280;13185;50.872;5.306;2022-11-13T01:03:04;102257.72;;;5.75;100.00
25238;BME280;13185;50.872;5.306;2022-11-13T01:05:48;102257.78;;;5.71;100.00
25238;BME280;13185;50.872;5.306;2022-11-13T01:08:32;102253.41;;;5.68;100.00
25238;BME280;13185;50.872;5.306;2022-11-13T01:11:20;102234.00;;;5.65;100.00
25238;BME280;13185;50.872;5.306;2022-11-13T01:14:04;102234.94;;;5.61;100.00
25238;BME280;13185;50.872;5.306;2022-11-13T01:16:48;102238.53;;;5.60;100.00
25238;BME280;13185;50.872;5.306;2022-11-13T01:19:32;102239.41;;;5.60;100.00
25238;BME280;13185;50.872;5.306;2022-11-13T01:22:16;102247.41;;;5.59;100.00
25238;BME280;13185;50.872;5.306;2022-11-13T01:25:01;102247.56;;;5.53;100.00
25238;BME280;13185;50.872;5.306;2022-11-13T01:27:45;102254.72;;;5.49;100.00
25238;BME280;13185;50.872;5.306;2022-11-13T01:30:29;102245.94;;;5.45;100.00
25238;BME280;13185;50.872;5.306;2022-11-13T01:33:13;102239.78;;;5.43;100.00
25238;BME280;13185;50.872;5.306;2022-11-13T01:36:01;102248.69;;;5.41;100.00
25238;BME280;13185;50.872;5.306;2022-11-13T01:38:45;102237.22;;;5.39;100.00
25238;BME280;13185;50.872;5.306;2022-11-13T01:41:32;102232.84;;;5.36;100.00
25238;BME280;13185;50.872;5.306;2022-11-13T01:44:18;102224.88;;;5.35;100.00
25238;BME280;13185;50.872;5.306;2022-11-13T01:47:02;102233.81;;;5.32;100.00
25238;BME280;13185;50.872;5.306;2022-11-13T01:49:48;102226.78;;;5.28;100.00
25238;BME280;13185;50.872;5.306;2022-11-13T01:52:37;102237.50;;;5.25;100.00
25238;BME280;13185;50.872;5.306;2022-11-13T01:55:22;102226.97;;;5.19;100.00
25238;BME280;13185;50.872;5.306;2022-11-13T01:58:07;102223.53;;;5.15;100.00
25238;BME280;13185;50.872;5.306;2022-11-13T02:00:52;102215.63;;;5.12;100.00
25238;BME280;13185;50.872;5.306;2022-11-13T02:03:37;102212.13;;;5.09;100.00
25238;BME280;13185;50.872;5.306;2022-11-13T02:06:21;102213.97;;;5.05;100.00
25238;BME280;13185;50.872;5.306;2022-11-13T02:09:06;102211.34;;;5.04;100.00
25238;BME280;13185;50.872;5.306;2022-11-13T02:11:51;102210.50;;;5.02;100.00
25238;BME280;13185;50.872;5.306;2022-11-13T02:14:39;102217.63;;;5.00;100.00
25238;BME280;13185;50.872;5.306;2022-11-13T02:17:30;102219.41;;;5.01;100.00
25238;BME280;13185;50.872;5.306;2022-11-13T02:20:18;102206.97;;;5.00;100.00
25238;BME280;13185;50.872;5.306;2022-11-13T02:25:57;102204.31;;;5.00;100.00
25238;BME280;13185;50.872;5.306;2022-11-13T02:28:41;102202.53;;;5.02;100.00
25238;BME280;13185;50.872;5.306;2022-11-13T02:31:25;102191.03;;;5.01;100.00
25238;BME280;13185;50.872;5.306;2022-11-13T02:34:09;102193.63;;;5.04;100.00
25238;BME280;13185;50.872;5.306;2022-11-13T02:36:53;102182.94;;;5.06;100.00
25238;BME280;13185;50.872;5.306;2022-11-13T02:39:38;102176.75;;;5.05;100.00
25238;BME280;13185;50.872;5.306;2022-11-13T02:42:22;102167.00;;;5.06;100.00
25238;BME280;13185;50.872;5.306;2022-11-13T02:45:06;102176.75;;;5.05;100.00
25238;BME280;13185;50.872;5.306;2022-11-13T02:47:50;102171.41;;;5.07;100.00
25238;BME280;13185;50.872;5.306;2022-11-13T02:50:35;102171.44;;;5.05;100.00
25238;BME280;13185;50.872;5.306;2022-11-13T02:53:20;102177.66;;;5.04;100.00
25238;BME280;13185;50.872;5.306;2022-11-13T02:56:04;102162.66;;;5.02;100.00
25238;BME280;13185;50.872;5.306;2022-11-13T02:58:49;102171.53;;;5.01;100.00
25238;BME280;13185;50.872;5.306;2022-11-13T03:01:33;102164.44;;;5.01;100.00
25238;BME280;13185;50.872;5.306;2022-11-13T03:04:17;102159.13;;;5.01;100.00
25238;BME280;13185;50.872;5.306;2022-11-13T03:07:01;102152.94;;;4.99;100.00
25238;BME280;13185;50.872;5.306;2022-11-13T03:09:45;102158.25;;;4.99;100.00
25238;BME280;13185;50.872;5.306;2022-11-13T03:12:30;102159.16;;;4.98;100.00
25238;BME280;13185;50.872;5.306;2022-11-13T03:15:14;102146.78;;;4.97;100.00
25238;BME280;13185;50.872;5.306;2022-11-13T03:18:02;102160.97;;;4.96;100.00
25238;BME280;13185;50.872;5.306;2022-11-13T03:20:47;102156.53;;;4.97;100.00
25238;BME280;13185;50.872;5.306;2022-11-13T03:23:37;102148.56;;;4.97;100.00
25238;BME280;13185;50.872;5.306;2022-11-13T03:26:22;102146.81;;;4.96;100.00
25238;BME280;13185;50.872;5.306;2022-11-13T03:29:06;102140.66;;;4.93;100.00
25238;BME280;13185;50.872;5.306;2022-11-13T03:31:50;102146.88;;;4.92;100.00
25238;BME280;13185;50.872;5.306;2022-11-13T03:34:35;102144.22;;;4.92;100.00
25238;BME280;13185;50.872;5.306;2022-11-13T03:37:19;102147.81;;;4.91;100.00
25238;BME280;13185;50.872;5.306;2022-11-13T03:40:04;102146.06;;;4.89;100.00
25238;BME280;13185;50.872;5.306;2022-11-13T03:42:48;102145.22;;;4.87;100.00
25238;BME280;13185;50.872;5.306;2022-11-13T03:45:33;102139.00;;;4.88;100.00
25238;BME280;13185;50.872;5.306;2022-11-13T03:48:17;102140.78;;;4.87;100.00
25238;BME280;13185;50.872;5.306;2022-11-13T03:51:01;102137.25;;;4.87;100.00
25238;BME280;13185;50.872;5.306;2022-11-13T03:53:45;102126.63;;;4.87;100.00
25238;BME280;13185;50.872;5.306;2022-11-13T03:56:29;102127.56;;;4.84;100.00
25238;BME280;13185;50.872;5.306;2022-11-13T03:59:13;102124.94;;;4.83;100.00
25238;BME280;13185;50.872;5.306;2022-11-13T04:01:57;102119.69;;;4.80;100.00
25238;BME280;13185;50.872;5.306;2022-11-13T04:04:41;102113.47;;;4.81;100.00
25238;BME280;13185;50.872;5.306;2022-11-13T04:07:25;102113.47;;;4.81;100.00
25238;BME280;13185;50.872;5.306;2022-11-13T04:10:09;102109.06;;;4.80;100.00
25238;BME280;13185;50.872;5.306;2022-11-13T04:12:54;102109.06;;;4.78;100.00
25238;BME280;13185;50.872;5.306;2022-11-13T04:15:38;102105.56;;;4.76;100.00
25238;BME280;13185;50.872;5.306;2022-11-13T04:18:22;102110.94;;;4.75;100.00
25238;BME280;13185;50.872;5.306;2022-11-13T04:21:06;102110.09;;;4.73;100.00
25238;BME280;13185;50.872;5.306;2022-11-13T04:23:50;102106.59;;;4.71;100.00
25238;BME280;13185;50.872;5.306;2022-11-13T04:26:34;102103.97;;;4.69;100.00
25238;BME280;13185;50.872;5.306;2022-11-13T04:29:18;102096.03;;;4.66;100.00
25238;BME280;13185;50.872;5.306;2022-11-13T04:32:02;102101.47;;;4.61;100.00
25238;BME280;13185;50.872;5.306;2022-11-13T04:34:46;102092.66;;;4.58;100.00
25238;BME280;13185;50.872;5.306;2022-11-13T04:37:30;102105.06;;;4.57;100.00
25238;BME280;13185;50.872;5.306;2022-11-13T04:40:15;102106.00;;;4.55;100.00
25238;BME280;13185;50.872;5.306;2022-11-13T04:42:59;102095.47;;;4.52;100.00
25238;BME280;13185;50.872;5.306;2022-11-13T04:45:43;102091.09;;;4.48;100.00
25238;BME280;13185;50.872;5.306;2022-11-13T04:48:27;102095.56;;;4.46;100.00
25238;BME280;13185;50.872;5.306;2022-11-13T04:51:12;102091.19;;;4.43;100.00
25238;BME280;13185;50.872;5.306;2022-11-13T04:53:56;102086.84;;;4.41;100.00
25238;BME280;13185;50.872;5.306;2022-11-13T04:56:40;102086.03;;;4.35;100.00
25238;BME280;13185;50.872;5.306;2022-11-13T04:59:24;102086.13;;;4.31;100.00
25238;BME280;13185;50.872;5.306;2022-11-13T05:02:08;102081.78;;;4.25;100.00
25238;BME280;13185;50.872;5.306;2022-11-13T05:04:52;102078.38;;;4.20;100.00
25238;BME280;13185;50.872;5.306;2022-11-13T05:07:37;102075.78;;;4.17;100.00
25238;BME280;13185;50.872;5.306;2022-11-13T05:10:21;102077.59;;;4.14;100.00
25238;BME280;13185;50.872;5.306;2022-11-13T05:13:05;102075.88;;;4.11;100.00
25238;BME280;13185;50.872;5.306;2022-11-13T05:15:50;102067.91;;;4.11;100.00
25238;BME280;13185;50.872;5.306;2022-11-13T05:18:36;102067.09;;;4.09;100.00
25238;BME280;13185;50.872;5.306;2022-11-13T05:21:20;102071.53;;;4.07;100.00
25238;BME280;13185;50.872;5.306;2022-11-13T05:24:04;102075.16;;;4.03;100.00
25238;BME280;13185;50.872;5.306;2022-11-13T05:26:49;102066.38;;;3.99;100.00
25238;BME280;13185;50.872;5.306;2022-11-13T05:29:32;102066.44;;;3.96;100.00
25238;BME280;13185;50.872;5.306;2022-11-13T05:32:17;102065.59;;;3.93;100.00
25238;BME280;13185;50.872;5.306;2022-11-13T05:35:01;102057.72;;;3.88;100.00
25238;BME280;13185;50.872;5.306;2022-11-13T05:37:45;102063.97;;;3.84;100.00
25238;BME280;13185;50.872;5.306;2022-11-13T05:40:29;102065.78;;;3.82;100.00
25238;BME280;13185;50.872;5.306;2022-11-13T05:43:14;102060.56;;;3.78;100.00
25238;BME280;13185;50.872;5.306;2022-11-13T05:48:53;102051.88;;;3.69;100.00
25238;BME280;13185;50.872;5.306;2022-11-13T05:51:38;102054.56;;;3.68;100.00
25238;BME280;13185;50.872;5.306;2022-11-13T05:54:22;102053.72;;;3.66;100.00
25238;BME280;13185;50.872;5.306;2022-11-13T05:57:06;102044.88;;;3.64;100.00
25238;BME280;13185;50.872;5.306;2022-11-13T05:59:50;102043.19;;;3.60;100.00
25238;BME280;13185;50.872;5.306;2022-11-13T06:02:34;102046.75;;;3.59;100.00
25238;BME280;13185;50.872;5.306;2022-11-13T06:05:19;102041.50;;;3.56;100.00
25238;BME280;13185;50.872;5.306;2022-11-13T06:08:03;102036.19;;;3.54;100.00
25238;BME280;13185;50.872;5.306;2022-11-13T06:10:47;102041.53;;;3.53;100.00
25238;BME280;13185;50.872;5.306;2022-11-13T06:13:32;102039.81;;;3.50;100.00
25238;BME280;13185;50.872;5.306;2022-11-13T06:16:22;102026.66;;;3.45;100.00
25238;BME280;13185;50.872;5.306;2022-11-13T06:19:08;102024.91;;;3.41;100.00
25238;BME280;13185;50.872;5.306;2022-11-13T06:21:53;102026.75;;;3.38;100.00
25238;BME280;13185;50.872;5.306;2022-11-13T06:24:37;102013.53;;;3.36;100.00
25238;BME280;13185;50.872;5.306;2022-11-13T06:27:21;102020.66;;;3.31;100.00
25238;BME280;13185;50.872;5.306;2022-11-13T06:30:05;102021.59;;;3.29;100.00
25238;BME280;13185;50.872;5.306;2022-11-13T06:32:53;102023.47;;;3.24;100.00
25238;BME280;13185;50.872;5.306;2022-11-13T06:35:37;102020.81;;;3.22;100.00
25238;BME280;13185;50.872;5.306;2022-11-13T06:38:21;102020.88;;;3.19;100.00
25238;BME280;13185;50.872;5.306;2022-11-13T06:41:07;102016.53;;;3.15;100.00
25238;BME280;13185;50.872;5.306;2022-11-13T06:43:51;102017.44;;;3.12;100.00
25238;BME280;13185;50.872;5.306;2022-11-13T06:46:35;102028.94;;;3.11;100.00
25238;BME280;13185;50.872;5.306;2022-11-13T06:49:19;102028.06;;;3.11;100.00
25238;BME280;13185;50.872;5.306;2022-11-13T06:52:04;102027.16;;;3.12;100.00
25238;BME280;13185;50.872;5.306;2022-11-13T06:54:48;102027.16;;;3.12;100.00
25238;BME280;13185;50.872;5.306;2022-11-13T06:57:32;102019.25;;;3.10;100.00
25238;BME280;13185;50.872;5.306;2022-11-13T07:00:17;102009.56;;;3.08;100.00
25238;BME280;13185;50.872;5.306;2022-11-13T07:03:01;102013.97;;;3.09;100.00
25238;BME280;13185;50.872;5.306;2022-11-13T07:05:45;102016.66;;;3.06;100.00
25238;BME280;13185;50.872;5.306;2022-11-13T07:08:30;102016.72;;;3.01;100.00
25238;BME280;13185;50.872;5.306;2022-11-13T07:11:17;102016.75;;;3.00;100.00
25238;BME280;13185;50.872;5.306;2022-11-13T07:14:02;102022.94;;;2.99;100.00
25238;BME280;13185;50.872;5.306;2022-11-13T07:16:46;102021.19;;;2.99;100.00
25238;BME280;13185;50.872;5.306;2022-11-13T07:19:30;102021.19;;;2.99;100.00
25238;BME280;13185;50.872;5.306;2022-11-13T07:22:14;102013.25;;;2.98;100.00
25238;BME280;13185;50.872;5.306;2022-11-13T07:24:58;102014.13;;;2.98;100.00
25238;BME280;13185;50.872;5.306;2022-11-13T07:27:44;102005.28;;;2.99;100.00
25238;BME280;13185;50.872;5.306;2022-11-13T07:30:28;102008.81;;;3.00;100.00
25238;BME280;13185;50.872;5.306;2022-11-13T07:33:12;102003.47;;;3.03;100.00
25238;BME280;13185;50.872;5.306;2022-11-13T07:35:56;102001.63;;;3.06;100.00
25238;BME280;13185;50.872;5.306;2022-11-13T07:38:40;102007.75;;;3.13;100.00
25238;BME280;13185;50.872;5.306;2022-11-13T07:41:25;102005.94;;;3.15;100.00
25238;BME280;13185;50.872;5.306;2022-11-13T07:44:09;102006.75;;;3.18;100.00
25238;BME280;13185;50.872;5.306;2022-11-13T07:46:53;102001.38;;;3.22;100.00
25238;BME280;13185;50.872;5.306;2022-11-13T07:49:37;102009.31;;;3.25;100.00
25238;BME280;13185;50.872;5.306;2022-11-13T07:52:22;102001.31;;;3.28;100.00
25238;BME280;13185;50.872;5.306;2022-11-13T07:55:06;102009.19;;;3.31;100.00
25238;BME280;13185;50.872;5.306;2022-11-13T07:57:57;102002.97;;;3.33;100.00
25238;BME280;13185;50.872;5.306;2022-11-13T08:00:41;101992.31;;;3.36;100.00
25238;BME280;13185;50.872;5.306;2022-11-13T08:03:25;102002.00;;;3.39;100.00
25238;BME280;13185;50.872;5.306;2022-11-13T08:06:09;101991.28;;;3.43;100.00
25238;BME280;13185;50.872;5.306;2022-11-13T08:08:54;101989.47;;;3.47;100.00
25238;BME280;13185;50.872;5.306;2022-11-13T08:11:38;101987.59;;;3.52;100.00
25238;BME280;13185;50.872;5.306;2022-11-13T08:14:25;101992.84;;;3.57;100.00
25238;BME280;13185;50.872;5.306;2022-11-13T08:17:10;101997.16;;;3.62;100.00
25238;BME280;13185;50.872;5.306;2022-11-13T08:19:53;101987.34;;;3.67;100.00
25238;BME280;13185;50.872;5.306;2022-11-13T08:22:41;101978.41;;;3.71;100.00
25238;BME280;13185;50.872;5.306;2022-11-13T08:25:26;101981.84;;;3.78;100.00
25238;BME280;13185;50.872;5.306;2022-11-13T08:28:11;101985.34;;;3.80;100.00
25238;BME280;13185;50.872;5.306;2022-11-13T08:30:55;101980.81;;;3.85;100.00
25238;BME280;13185;50.872;5.306;2022-11-13T08:33:40;101973.53;;;3.95;100.00
25238;BME280;13185;50.872;5.306;2022-11-13T08:36:24;101974.28;;;4.03;100.00
25238;BME280;13185;50.872;5.306;2022-11-13T08:39:08;101965.28;;;4.10;100.00
25238;BME280;13185;50.872;5.306;2022-11-13T08:41:52;101970.41;;;4.19;100.00
25238;BME280;13185;50.872;5.306;2022-11-13T08:44:36;101974.50;;;4.34;100.00
25238;BME280;13185;50.872;5.306;2022-11-13T08:47:21;101964.56;;;4.44;100.00
25238;BME280;13185;50.872;5.306;2022-11-13T08:50:05;101962.63;;;4.52;100.00
25238;BME280;13185;50.872;5.306;2022-11-13T08:52:53;101965.13;;;4.59;100.00
25238;BME280;13185;50.872;5.306;2022-11-13T08:55:38;101966.72;;;4.67;100.00
25238;BME280;13185;50.872;5.306;2022-11-13T08:58:23;101965.72;;;4.72;100.00
25238;BME280;13185;50.872;5.306;2022-11-13T09:01:07;101966.41;;;4.79;100.00
25238;BME280;13185;50.872;5.306;2022-11-13T09:03:51;101971.56;;;4.86;100.00
25238;BME280;13185;50.872;5.306;2022-11-13T09:06:36;101971.41;;;4.94;100.00
25238;BME280;13185;50.872;5.306;2022-11-13T09:09:20;101966.81;;;5.01;100.00
25238;BME280;13185;50.872;5.306;2022-11-13T09:12:06;101971.94;;;5.08;100.00
25238;BME280;13185;50.872;5.306;2022-11-13T09:14:50;101960.28;;;5.14;100.00
25238;BME280;13185;50.872;5.306;2022-11-13T09:17:34;101960.97;;;5.22;100.00
25238;BME280;13185;50.872;5.306;2022-11-13T09:20:18;101959.84;;;5.31;100.00
25238;BME280;13185;50.872;5.306;2022-11-13T09:23:05;101962.31;;;5.38;100.00
25238;BME280;13185;50.872;5.306;2022-11-13T09:25:50;101964.78;;;5.46;100.00
25238;BME280;13185;50.872;5.306;2022-11-13T09:28:34;101958.34;;;5.55;100.00
25238;BME280;13185;50.872;5.306;2022-11-13T09:31:18;101954.69;;;5.59;100.00
25238;BME280;13185;50.872;5.306;2022-11-13T09:34:03;101957.25;;;5.63;100.00
25238;BME280;13185;50.872;5.306;2022-11-13T09:36:47;101958.88;;;5.67;100.00
25238;BME280;13185;50.872;5.306;2022-11-13T09:39:31;101955.22;;;5.71;100.00
25238;BME280;13185;50.872;5.306;2022-11-13T09:42:21;101943.53;;;5.77;100.00
25238;BME280;13185;50.872;5.306;2022-11-13T09:45:12;101945.16;;;5.83;100.00
25238;BME280;13185;50.872;5.306;2022-11-13T09:48:05;101948.50;;;5.91;100.00
25238;BME280;13185;50.872;5.306;2022-11-13T09:50:53;101943.91;;;5.97;100.00
25238;BME280;13185;50.872;5.306;2022-11-13T09:53:38;101941.84;;;6.07;100.00
25238;BME280;13185;50.872;5.306;2022-11-13T09:56:24;101934.47;;;6.17;100.00
25238;BME280;13185;50.872;5.306;2022-11-13T10:05:28;101926.47;;;6.46;100.00
25238;BME280;13185;50.872;5.306;2022-11-13T10:08:39;101922.56;;;6.56;100.00
25238;BME280;13185;50.872;5.306;2022-11-13T10:14:28;101921.91;;;6.78;100.00
25238;BME280;13185;50.872;5.306;2022-11-13T10:20:21;101918.38;;;7.04;100.00
25238;BME280;13185;50.872;5.306;2022-11-13T10:23:36;101925.09;;;7.15;100.00
25238;BME280;13185;50.872;5.306;2022-11-13T10:26:23;101918.47;;;7.27;100.00
25238;BME280;13185;50.872;5.306;2022-11-13T10:29:12;101919.09;;;7.35;100.00
25238;BME280;13185;50.872;5.306;2022-11-13T10:31:57;101918.84;;;7.43;100.00
25238;BME280;13185;50.872;5.306;2022-11-13T10:34:47;101906.84;;;7.55;100.00
25238;BME280;13185;50.872;5.306;2022-11-13T10:38:04;101903.78;;;7.65;100.00
25238;BME280;13185;50.872;5.306;2022-11-13T10:40:48;101905.34;;;7.71;100.00
25238;BME280;13185;50.872;5.306;2022-11-13T10:43:33;101895.94;;;7.86;100.00
25238;BME280;13185;50.872;5.306;2022-11-13T10:46:20;101889.19;;;7.99;100.00
25238;BME280;13185;50.872;5.306;2022-11-13T10:52:01;101886.91;;;8.11;100.00
25238;BME280;13185;50.872;5.306;2022-11-13T10:54:46;101879.50;;;8.20;100.00
25238;BME280;13185;50.872;5.306;2022-11-13T10:57:32;101881.88;;;8.27;100.00
25238;BME280;13185;50.872;5.306;2022-11-13T11:00:20;101874.41;;;8.37;100.00
25238;BME280;13185;50.872;5.306;2022-11-13T11:03:14;101878.50;;;8.46;100.00
25238;BME280;13185;50.872;5.306;2022-11-13T11:06:01;101875.47;;;8.55;100.00
25238;BME280;13185;50.872;5.306;2022-11-13T11:08:45;101866.19;;;8.63;100.00
25238;BME280;13185;50.872;5.306;2022-11-13T11:11:29;101861.16;;;8.78;100.00
25238;BME280;13185;50.872;5.306;2022-11-13T11:17:49;101857.53;;;9.01;100.00
25238;BME280;13185;50.872;5.306;2022-11-13T11:20:58;101859.88;;;9.08;100.00
25238;BME280;13185;50.872;5.306;2022-11-13T11:24:04;101846.97;;;9.18;100.00
25238;BME280;13185;50.872;5.306;2022-11-13T11:26:56;101838.72;;;9.22;100.00
25238;BME280;13185;50.872;5.306;2022-11-13T11:36:40;101826.41;;;9.59;100.00
25238;BME280;13185;50.872;5.306;2022-11-13T11:40:00;101823.00;;;9.74;100.00
25238;BME280;13185;50.872;5.306;2022-11-13T11:43:00;101810.78;;;9.88;100.00
25238;BME280;13185;50.872;5.306;2022-11-13T11:45:46;101814.84;;;9.96;100.00
25238;BME280;13185;50.872;5.306;2022-11-13T11:48:31;101811.88;;;10.02;100.00
25238;BME280;13185;50.872;5.306;2022-11-13T11:51:30;101807.16;;;10.07;100.00
25238;BME280;13185;50.872;5.306;2022-11-13T11:54:41;101801.19;;;10.20;100.00
25238;BME280;13185;50.872;5.306;2022-11-13T12:00:19;101798.44;;;10.40;100.00
25238;BME280;13185;50.872;5.306;2022-11-13T12:09:28;101778.06;;;10.72;100.00
25238;BME280;13185;50.872;5.306;2022-11-13T12:12:16;101773.91;;;10.84;99.75
25238;BME280;13185;50.872;5.306;2022-11-13T12:18:34;101755.75;;;11.06;96.67
25238;BME280;13185;50.872;5.306;2022-11-13T12:24:41;101741.31;;;11.24;95.90
25238;BME280;13185;50.872;5.306;2022-11-13T12:30:41;101729.69;;;11.41;95.66
25238;BME280;13185;50.872;5.306;2022-11-13T12:33:56;101728.31;;;11.50;95.02
25238;BME280;13185;50.872;5.306;2022-11-13T12:36:46;101728.50;;;11.63;94.51
25238;BME280;13185;50.872;5.306;2022-11-13T12:42:49;101720.03;;;11.86;93.22
25238;BME280;13185;50.872;5.306;2022-11-13T12:51:15;101711.97;;;12.18;91.93
25238;BME280;13185;50.872;5.306;2022-11-13T12:57:24;101703.44;;;12.41;90.84
25238;BME280;13185;50.872;5.306;2022-11-13T13:00:23;101704.63;;;12.51;90.59
25238;BME280;13185;50.872;5.306;2022-11-13T13:15:39;101671.84;;;13.17;88.54
25238;BME280;13185;50.872;5.306;2022-11-13T13:18:29;101664.94;;;13.27;86.66
25238;BME280;13185;50.872;5.306;2022-11-13T13:21:15;101655.22;;;13.39;84.73
25238;BME280;13185;50.872;5.306;2022-11-13T13:24:21;101651.94;;;13.48;84.74
25238;BME280;13185;50.872;5.306;2022-11-13T13:27:27;101655.88;;;13.57;82.47
25238;BME280;13185;50.872;5.306;2022-11-13T13:30:20;101643.53;;;13.67;81.62
25238;BME280;13185;50.872;5.306;2022-11-13T13:37:24;101633.44;;;13.83;81.60
25238;BME280;13185;50.872;5.306;2022-11-13T13:46:29;101611.88;;;14.10;78.37
25238;BME280;13185;50.872;5.306;2022-11-13T13:49:17;101609.94;;;14.12;78.86
25238;BME280;13185;50.872;5.306;2022-11-13T13:52:03;101610.28;;;14.21;79.68
25238;BME280;13185;50.872;5.306;2022-11-13T13:54:48;101610.16;;;14.22;77.74
25238;BME280;13185;50.872;5.306;2022-11-13T13:57:33;101610.53;;;14.30;79.90
25238;BME280;13185;50.872;5.306;2022-11-13T14:00:23;101589.91;;;14.42;80.30
25238;BME280;13185;50.872;5.306;2022-11-13T14:03:33;101590.19;;;14.52;78.56
25238;BME280;13185;50.872;5.306;2022-11-13T14:06:22;101595.06;;;14.59;78.65
25238;BME280;13185;50.872;5.306;2022-11-13T14:09:15;101583.16;;;14.62;77.79
25238;BME280;13185;50.872;5.306;2022-11-13T14:12:02;101588.03;;;14.69;77.38
25238;BME280;13185;50.872;5.306;2022-11-13T14:14:47;101593.97;;;14.75;76.85
25238;BME280;13185;50.872;5.306;2022-11-13T14:17:31;101580.78;;;14.83;77.69
25238;BME280;13185;50.872;5.306;2022-11-13T14:20:17;101587.25;;;14.93;76.78
25238;BME280;13185;50.872;5.306;2022-11-13T14:23:02;101590.91;;;15.05;77.41
25238;BME280;13185;50.872;5.306;2022-11-13T14:25:47;101594.78;;;15.13;77.02
25238;BME280;13185;50.872;5.306;2022-11-13T14:28:33;101599.84;;;15.18;75.41
25238;BME280;13185;50.872;5.306;2022-11-13T14:31:17;101597.38;;;15.15;73.96
25238;BME280;13185;50.872;5.306;2022-11-13T14:34:15;101600.72;;;15.18;73.72
25238;BME280;13185;50.872;5.306;2022-11-13T14:37:10;101595.84;;;15.23;74.35
25238;BME280;13185;50.872;5.306;2022-11-13T14:40:04;101595.31;;;15.18;74.64
25238;BME280;13185;50.872;5.306;2022-11-13T14:42:58;101595.88;;;14.98;72.43
25238;BME280;13185;50.872;5.306;2022-11-13T14:45:52;101588.31;;;14.78;72.34
25238;BME280;13185;50.872;5.306;2022-11-13T14:48:37;101582.94;;;14.65;72.27
25238;BME280;13185;50.872;5.306;2022-11-13T14:51:27;101587.69;;;14.61;73.58
25238;BME280;13185;50.872;5.306;2022-11-13T14:54:33;101581.00;;;14.67;72.91
25238;BME280;13185;50.872;5.306;2022-11-13T14:57:17;101587.06;;;14.70;74.28
25238;BME280;13185;50.872;5.306;2022-11-13T15:00:15;101587.59;;;14.76;75.35
25238;BME280;13185;50.872;5.306;2022-11-13T15:03:02;101571.94;;;14.81;75.51
25238;BME280;13185;50.872;5.306;2022-11-13T15:05:47;101574.41;;;14.84;75.56
25238;BME280;13185;50.872;5.306;2022-11-13T15:08:33;101571.72;;;14.84;76.10
25238;BME280;13185;50.872;5.306;2022-11-13T15:11:18;101566.09;;;14.74;75.79
25238;BME280;13185;50.872;5.306;2022-11-13T15:14:02;101561.34;;;14.65;75.98
25238;BME280;13185;50.872;5.306;2022-11-13T15:16:47;101550.44;;;14.54;76.22
25238;BME280;13185;50.872;5.306;2022-11-13T15:19:34;101550.53;;;14.39;76.37
25238;BME280;13185;50.872;5.306;2022-11-13T15:22:21;101553.19;;;14.27;76.17
25238;BME280;13185;50.872;5.306;2022-11-13T15:25:13;101552.97;;;14.17;76.51
25238;BME280;13185;50.872;5.306;2022-11-13T15:27:58;101544.84;;;14.04;76.95
25238;BME280;13185;50.872;5.306;2022-11-13T15:30:43;101548.50;;;13.91;77.08
25238;BME280;13185;50.872;5.306;2022-11-13T15:33:27;101540.50;;;13.76;77.39
25238;BME280;13185;50.872;5.306;2022-11-13T15:36:11;101546.88;;;13.61;77.68
25238;BME280;13185;50.872;5.306;2022-11-13T15:38:55;101536.06;;;13.48;78.24
25238;BME280;13185;50.872;5.306;2022-11-13T15:41:40;101533.09;;;13.39;78.19
25238;BME280;13185;50.872;5.306;2022-11-13T15:44:24;101534.69;;;13.28;78.50
25238;BME280;13185;50.872;5.306;2022-11-13T15:47:25;101536.31;;;13.17;78.47
25238;BME280;13185;50.872;5.306;2022-11-13T15:50:09;101537.88;;;13.07;78.42
25238;BME280;13185;50.872;5.306;2022-11-13T15:52:54;101535.00;;;12.95;78.70
25238;BME280;13185;50.872;5.306;2022-11-13T15:55:38;101532.31;;;12.81;78.85